createdAt,value
2024-02-13T00:02:19.328Z,100260.69
2024-02-13T00:04:50.242Z,100262.47
2024-02-13T00:07:20.341Z,100262.50
2024-02-13T00:09:50.172Z,100265.13
2024-02-13T00:12:19.913Z,100259.00
2024-02-13T00:14:52.753Z,100265.94
2024-02-13T00:17:22.699Z,100266.81
2024-02-13T00:19:53.932Z,100270.34
2024-02-13T00:22:23.751Z,100264.34
2024-02-13T00:24:53.858Z,100262.63
2024-02-13T00:27:23.740Z,100271.34
2024-02-13T00:29:56.102Z,100275.66
2024-02-13T00:32:25.942Z,100283.47
2024-02-13T00:34:56.760Z,100289.50
2024-02-13T00:37:27.008Z,100298.19
2024-02-13T00:39:57.223Z,100298.19
2024-02-13T00:42:27.620Z,100303.38
2024-02-13T00:45:01.961Z,100306.88
2024-02-13T00:47:32.844Z,100299.06
2024-02-13T00:50:03.008Z,100311.22
2024-02-13T00:52:33.686Z,100305.13
2024-02-13T00:55:04.363Z,100306.81
2024-02-13T00:57:34.117Z,100304.19
2024-02-13T01:00:10.840Z,100311.06
2024-02-13T01:02:40.789Z,100309.28
2024-02-13T01:05:11.126Z,100322.34
2024-02-13T01:07:41.499Z,100312.78
2024-02-13T01:10:13.153Z,100316.22
2024-02-13T01:12:42.932Z,100316.25
2024-02-13T01:15:18.628Z,100316.22
2024-02-13T01:17:48.567Z,100320.53
2024-02-13T01:20:19.876Z,100320.56
2024-02-13T01:22:49.637Z,100318.84
2024-02-13T01:25:19.452Z,100315.34
2024-02-13T01:27:49.450Z,100325.78
2024-02-13T01:30:21.869Z,100331.06
2024-02-13T01:32:51.721Z,100334.56
2024-02-13T01:35:21.646Z,100336.31
2024-02-13T01:37:51.621Z,100345.88
2024-02-13T01:40:21.573Z,100355.50
2024-02-13T01:42:52.100Z,100359.84
2024-02-13T01:45:25.666Z,100355.50
2024-02-13T01:47:56.202Z,100363.34
2024-02-13T01:50:28.909Z,100372.94
2024-02-13T01:52:58.691Z,100372.06
2024-02-13T01:55:30.997Z,100365.94
2024-02-13T01:58:03.618Z,100369.41
2024-02-13T02:00:36.492Z,100368.50
2024-02-13T02:03:07.690Z,100369.31
2024-02-13T02:05:37.840Z,100365.78
2024-02-13T02:08:08.635Z,100366.63
2024-02-13T02:10:39.841Z,100370.06
2024-02-13T02:13:09.618Z,100362.22
2024-02-13T02:15:42.507Z,100360.44
2024-02-13T02:18:13.991Z,100360.44
2024-02-13T02:20:46.113Z,100363.13
2024-02-13T02:23:15.994Z,100367.56
2024-02-13T02:25:48.532Z,100367.63
2024-02-13T02:28:19.296Z,100368.59
2024-02-13T02:30:50.041Z,100371.28
2024-02-13T02:33:19.855Z,100377.44
2024-02-13T02:35:50.007Z,100381.81
2024-02-13T02:38:20.251Z,100392.28
2024-02-13T02:40:52.610Z,100375.78
2024-02-13T02:43:22.532Z,100383.66
2024-02-13T02:45:52.404Z,100394.06
2024-02-13T02:48:22.541Z,100381.91
2024-02-13T02:50:52.316Z,100392.34
2024-02-13T02:53:22.232Z,100390.59
2024-02-13T02:55:52.605Z,100394.03
2024-02-13T02:58:22.750Z,100390.53
2024-02-13T03:00:53.567Z,100395.69
2024-02-13T03:03:23.745Z,100387.00
2024-02-13T03:05:55.903Z,100382.59
2024-02-13T03:08:25.835Z,100398.25
2024-02-13T03:10:58.158Z,100393.00
2024-02-13T03:13:27.865Z,100393.81
2024-02-13T03:15:57.887Z,100396.38
2024-02-13T03:18:28.150Z,100403.31
2024-02-13T03:20:58.335Z,100411.13
2024-02-13T03:23:30.216Z,100412.94
2024-02-13T03:26:02.580Z,100410.31
2024-02-13T03:28:32.268Z,100413.78
2024-02-13T03:31:01.993Z,100414.66
2024-02-13T03:33:32.190Z,100412.91
2024-02-13T03:36:02.633Z,100409.34
2024-02-13T03:38:32.407Z,100416.22
2024-02-13T03:41:04.757Z,100416.13
2024-02-13T03:43:34.468Z,100405.56
2024-02-13T03:46:04.478Z,100408.97
2024-02-13T03:48:34.579Z,100403.69
2024-02-13T03:51:05.016Z,100406.25
2024-02-13T03:53:36.920Z,100408.81
2024-02-13T03:56:10.136Z,100412.22
2024-02-13T03:58:39.899Z,100405.13
2024-02-13T04:01:10.043Z,100409.38
2024-02-13T04:03:42.524Z,100412.75
2024-02-13T04:06:13.503Z,100414.34
2024-02-13T04:08:46.003Z,100410.75
2024-02-13T04:11:18.617Z,100415.03
2024-02-13T04:13:48.472Z,100413.22
2024-02-13T04:16:18.247Z,100414.00
2024-02-13T04:18:48.130Z,100420.06
2024-02-13T04:21:21.333Z,100420.91
2024-02-13T04:23:52.695Z,100422.63
2024-02-13T04:26:35.696Z,100429.59
2024-02-13T04:29:07.060Z,100420.00
2024-02-13T04:31:39.873Z,100415.66
2024-02-13T04:34:10.404Z,100420.09
2024-02-13T04:36:41.635Z,100422.81
2024-02-13T04:39:12.808Z,100421.19
2024-02-13T04:41:46.196Z,100424.75
2024-02-13T04:44:16.297Z,100419.69
2024-02-13T04:46:46.058Z,100412.81
2024-02-13T04:49:15.908Z,100418.13
2024-02-13T04:51:45.716Z,100422.53
2024-02-13T04:54:15.538Z,100420.84
2024-02-13T04:56:50.375Z,100423.53
2024-02-13T04:59:22.665Z,100432.31
2024-02-13T05:01:53.458Z,100428.00
2024-02-13T05:04:50.409Z,100433.28
2024-02-13T05:07:28.178Z,100429.03
2024-02-13T05:09:58.301Z,100439.53
2024-02-13T05:12:30.671Z,100437.88
2024-02-13T05:15:01.022Z,100434.44
2024-02-13T05:17:31.804Z,100442.34
2024-02-13T05:20:02.104Z,100445.88
2024-02-13T05:22:31.860Z,100444.16
2024-02-13T05:25:02.453Z,100448.56
2024-02-13T05:27:35.635Z,100445.97
2024-02-13T05:30:06.290Z,100445.13
2024-02-13T05:32:36.129Z,100455.56
2024-02-13T05:35:06.057Z,100452.97
2024-02-13T05:37:37.565Z,100446.88
2024-02-13T05:40:11.401Z,100449.47
2024-02-13T05:42:44.264Z,100448.63
2024-02-13T05:45:14.279Z,100452.13
2024-02-13T05:47:44.093Z,100460.84
2024-02-13T05:50:17.834Z,100454.78
2024-02-13T05:52:49.440Z,100461.69
2024-02-13T05:55:19.701Z,100464.31
2024-02-13T05:57:52.090Z,100462.56
2024-02-13T06:00:26.006Z,100463.44
2024-02-13T06:02:56.686Z,100467.81
2024-02-13T06:05:27.473Z,100466.94
2024-02-13T06:07:57.423Z,100471.28
2024-02-13T06:10:27.343Z,100466.91
2024-02-13T06:12:59.758Z,100466.03
2024-02-13T06:15:29.636Z,100462.53
2024-02-13T06:17:59.461Z,100467.75
2024-02-13T06:20:29.294Z,100464.28
2024-02-13T06:22:59.217Z,100479.06
2024-02-13T06:25:29.127Z,100476.47
2024-02-13T06:28:01.512Z,100469.53
2024-02-13T06:30:33.337Z,100485.19
2024-02-13T06:33:04.383Z,100477.34
2024-02-13T06:35:34.922Z,100481.69
2024-02-13T06:38:05.003Z,100480.81
2024-02-13T06:40:35.545Z,100477.31
2024-02-13T06:43:08.156Z,100486.88
2024-02-13T06:45:38.079Z,100486.00
2024-02-13T06:48:08.534Z,100487.72
2024-02-13T06:50:38.499Z,100493.81
2024-02-13T06:53:08.830Z,100480.69
2024-02-13T06:55:38.577Z,100486.72
2024-02-13T06:58:14.764Z,100490.13
2024-02-13T07:00:49.001Z,100494.44
2024-02-13T07:03:18.846Z,100504.81
2024-02-13T07:05:48.857Z,100492.63
2024-02-13T07:08:18.939Z,100500.44
2024-02-13T07:10:51.238Z,100505.63
2024-02-13T07:13:23.982Z,100505.53
2024-02-13T07:15:54.486Z,100504.56
2024-02-13T07:18:27.908Z,100498.34
2024-02-13T07:21:03.232Z,100499.97
2024-02-13T07:23:37.949Z,100501.63
2024-02-13T07:26:07.926Z,100507.69
2024-02-13T07:28:40.482Z,100521.59
2024-02-13T07:31:12.307Z,100521.59
2024-02-13T07:33:43.022Z,100527.66
2024-02-13T07:36:13.141Z,100536.34
2024-02-13T07:38:43.260Z,100533.75
2024-02-13T07:41:15.143Z,100525.91
2024-02-13T07:43:47.898Z,100537.25
2024-02-13T07:46:18.941Z,100543.38
2024-02-13T07:48:53.286Z,100541.59
2024-02-13T07:51:23.241Z,100544.19
2024-02-13T07:53:53.092Z,100545.81
2024-02-13T07:56:30.103Z,100546.47
2024-02-13T07:59:03.212Z,100546.13
2024-02-13T08:01:32.972Z,100540.66
2024-02-13T08:04:02.900Z,100550.03
2024-02-13T08:06:33.035Z,100553.31
2024-02-13T08:09:08.107Z,100554.00
2024-02-13T08:11:38.119Z,100556.53
2024-02-13T08:14:10.795Z,100561.72
2024-02-13T08:16:40.689Z,100559.97
2024-02-13T08:19:24.900Z,100558.13
2024-02-13T08:23:27.514Z,100565.00
2024-02-13T08:26:02.970Z,100568.44
2024-02-13T08:28:57.258Z,100566.53
2024-02-13T08:31:34.872Z,100573.44
2024-02-13T08:34:10.101Z,100567.94
2024-02-13T08:57:04.166Z,100574.03
2024-02-13T09:01:28.353Z,100590.38
2024-02-13T09:03:58.153Z,100588.56
2024-02-13T09:06:28.107Z,100579.47
2024-02-13T09:09:00.897Z,100570.34
2024-02-13T09:11:33.118Z,100576.66
2024-02-13T09:14:03.583Z,100570.47
2024-02-13T09:16:36.405Z,100599.72
2024-02-13T09:19:08.582Z,100596.56
2024-02-13T09:21:38.712Z,100602.25
2024-02-13T09:24:13.394Z,100607.84
2024-02-13T09:26:43.173Z,100602.75
2024-02-13T09:29:13.360Z,100603.78
2024-02-13T09:31:47.252Z,100596.81
2024-02-13T09:34:17.864Z,100598.06
2024-02-13T09:36:47.870Z,100592.28
2024-02-13T09:39:20.187Z,100589.50
2024-02-13T09:41:52.272Z,100587.22
2024-02-13T09:44:24.819Z,100587.56
2024-02-13T09:46:56.248Z,100588.94
2024-02-13T09:49:26.844Z,100587.22
2024-02-13T09:52:07.336Z,100589.59
2024-02-13T09:54:46.102Z,100582.22
2024-02-13T09:57:28.731Z,100580.28
2024-02-13T10:00:25.895Z,100584.66
2024-02-13T10:06:50.003Z,100587.06
2024-02-13T10:10:16.344Z,100594.59
2024-02-13T10:12:56.478Z,100603.84
2024-02-13T10:19:03.732Z,100606.47
2024-02-13T10:24:23.966Z,100603.72
2024-02-13T10:27:45.946Z,100609.41
2024-02-13T10:31:46.412Z,100619.13
2024-02-13T10:35:15.901Z,100616.47
2024-02-13T10:38:36.773Z,100607.69
2024-02-13T10:51:33.698Z,100621.13
2024-02-13T10:55:42.651Z,100618.56
2024-02-13T10:59:27.465Z,100616.72
2024-02-13T11:02:03.083Z,100609.66
2024-02-13T11:08:08.706Z,100614.66
2024-02-13T11:11:05.347Z,100605.59
2024-02-13T11:14:28.520Z,100610.00
2024-02-13T11:17:04.458Z,100611.47
2024-02-13T11:19:45.993Z,100619.00
2024-02-13T11:22:19.161Z,100611.13
2024-02-13T11:24:53.804Z,100610.22
2024-02-13T11:27:30.123Z,100606.69
2024-02-13T11:30:04.006Z,100609.25
2024-02-13T11:33:26.068Z,100610.03
2024-02-13T11:39:15.803Z,100613.59
2024-02-13T11:41:45.567Z,100608.53
2024-02-13T11:44:23.752Z,100606.06
2024-02-13T11:46:59.958Z,100595.59
2024-02-13T11:49:53.282Z,100598.41
2024-02-13T11:52:26.772Z,100596.00
2024-02-13T12:37:02.905Z,100580.44
2024-02-13T12:39:38.047Z,100578.09
2024-02-13T12:42:17.159Z,100579.41
2024-02-13T12:44:49.740Z,100589.47
2024-02-13T12:47:20.800Z,100581.22
2024-02-13T12:49:59.415Z,100589.94
2024-02-13T12:52:29.220Z,100579.34
2024-02-13T12:54:59.888Z,100574.09
2024-02-13T12:57:32.335Z,100586.50
2024-02-13T13:00:02.299Z,100576.06
2024-02-13T13:02:34.314Z,100580.53
2024-02-13T13:05:07.609Z,100586.03
2024-02-13T13:07:41.904Z,100580.22
2024-02-13T13:10:14.825Z,100579.84
2024-02-13T13:12:46.254Z,100581.00
2024-02-13T13:15:22.625Z,100579.44
2024-02-13T13:17:56.055Z,100575.13
2024-02-13T13:20:29.622Z,100578.13
2024-02-13T13:23:02.550Z,100567.16
2024-02-13T13:25:33.133Z,100570.25
2024-02-13T13:28:06.804Z,100564.59
2024-02-13T13:30:37.179Z,100572.06
2024-02-13T13:33:08.040Z,100560.97
2024-02-13T13:35:41.468Z,100561.09
2024-02-13T13:38:11.461Z,100560.38
2024-02-13T13:40:41.379Z,100556.09
2024-02-13T13:43:12.407Z,100564.94
2024-02-13T13:45:55.121Z,100567.63
2024-02-13T13:48:26.568Z,100557.97
2024-02-13T13:50:59.485Z,100552.69
2024-02-13T13:53:29.267Z,100558.94
2024-02-13T13:55:59.471Z,100553.72
2024-02-13T13:58:31.318Z,100557.16
2024-02-13T14:01:01.457Z,100554.44
2024-02-13T14:03:33.354Z,100548.97
2024-02-13T14:06:06.176Z,100547.81
2024-02-13T14:08:39.816Z,100548.59
2024-02-13T14:11:10.004Z,100550.97
2024-02-13T14:13:39.978Z,100549.72
2024-02-13T14:16:10.438Z,100545.06
2024-02-13T14:18:40.706Z,100552.88
2024-02-13T14:21:13.997Z,100552.09
2024-02-13T14:23:44.219Z,100553.97
2024-02-13T14:26:14.573Z,100556.78
2024-02-13T14:28:44.303Z,100550.03
2024-02-13T14:31:14.056Z,100546.81
2024-02-13T14:33:44.012Z,100553.13
2024-02-13T14:36:16.872Z,100549.56
2024-02-13T14:38:47.001Z,100545.03
2024-02-13T14:41:17.964Z,100544.81
2024-02-13T14:43:49.225Z,100547.19
2024-02-13T14:46:18.967Z,100547.00
2024-02-13T14:48:49.922Z,100538.88
2024-02-13T14:51:23.720Z,100542.09
2024-02-13T14:53:53.607Z,100540.94
2024-02-13T14:56:23.461Z,100541.38
2024-02-13T14:58:53.249Z,100537.34
2024-02-13T15:01:26.169Z,100536.09
2024-02-13T15:03:56.250Z,100530.59
2024-02-13T15:06:28.759Z,100528.78
2024-02-13T15:08:58.686Z,100523.56
2024-02-13T15:11:28.721Z,100529.97
2024-02-13T15:14:00.701Z,100526.53
2024-02-13T15:16:31.570Z,100531.84
2024-02-13T15:19:04.765Z,100525.66
2024-02-13T15:21:37.243Z,100523.22
2024-02-13T15:24:09.653Z,100526.03
2024-02-13T15:26:39.760Z,100517.34
2024-02-13T15:29:11.321Z,100526.25
2024-02-13T15:31:42.106Z,100520.13
2024-02-13T15:34:12.147Z,100515.81
2024-02-13T15:37:02.386Z,100520.22
2024-02-13T15:39:45.547Z,100522.88
2024-02-13T15:42:27.754Z,100527.25
2024-02-13T15:45:10.115Z,100524.53
2024-02-13T15:47:40.234Z,100524.72
2024-02-13T15:50:12.534Z,100525.75
2024-02-13T15:52:44.968Z,100522.41
2024-02-13T15:55:18.240Z,100526.09
2024-02-13T15:57:48.459Z,100519.31
2024-02-13T16:00:21.761Z,100518.56
2024-02-13T16:02:51.654Z,100513.53
2024-02-13T16:05:27.746Z,100517.19
2024-02-13T16:08:00.714Z,100517.28
2024-02-13T16:10:33.169Z,100515.69
2024-02-13T16:13:03.387Z,100513.22
2024-02-13T16:15:33.771Z,100517.78
2024-02-13T16:18:04.380Z,100516.19
2024-02-13T16:20:34.456Z,100524.22
2024-02-13T16:23:10.153Z,100530.53
2024-02-13T16:25:39.942Z,100528.88
2024-02-13T16:28:10.090Z,100528.09
2024-02-13T16:33:13.307Z,100527.41
2024-02-13T16:35:43.151Z,100533.72
2024-02-13T16:38:16.720Z,100535.59
2024-02-13T16:40:47.727Z,100540.13
2024-02-13T16:43:17.665Z,100538.41
2024-02-13T16:45:47.958Z,100547.28
2024-02-13T16:48:18.212Z,100548.25
2024-02-13T16:50:48.176Z,100547.44
2024-02-13T16:53:22.967Z,100546.63
2024-02-13T16:55:52.768Z,100539.75
2024-02-13T16:58:22.849Z,100536.22
2024-02-13T17:00:53.816Z,100531.94
2024-02-13T17:03:23.796Z,100535.59
2024-02-13T17:05:54.223Z,100536.56
2024-02-13T17:08:26.751Z,100540.16
2024-02-13T17:10:56.512Z,100541.97
2024-02-13T17:13:26.291Z,100539.38
2024-02-13T17:15:56.791Z,100542.91
2024-02-13T17:18:26.893Z,100543.03
2024-02-13T17:20:57.294Z,100547.47
2024-02-13T17:23:29.744Z,100546.66
2024-02-13T17:25:59.532Z,100553.78
2024-02-13T17:28:29.370Z,100551.25
2024-02-13T17:30:59.321Z,100549.53
2024-02-13T17:33:29.292Z,100547.81
2024-02-13T17:36:01.190Z,100542.63
2024-02-13T17:38:37.553Z,100539.19
2024-02-13T17:41:09.229Z,100539.28
2024-02-13T17:43:39.188Z,100534.97
2024-02-13T17:46:09.204Z,100530.66
2024-02-13T17:48:39.676Z,100528.91
2024-02-13T17:51:09.974Z,100542.22
2024-02-13T17:53:42.573Z,100544.84
2024-02-13T17:56:13.853Z,100541.34
2024-02-13T17:58:43.806Z,100532.56
2024-02-13T18:01:14.751Z,100536.13
2024-02-13T18:03:44.796Z,100542.22
2024-02-13T18:06:15.542Z,100543.06
2024-02-13T18:08:48.042Z,100538.69
2024-02-13T18:11:17.872Z,100537.78
2024-02-13T18:13:47.606Z,100546.59
2024-02-13T18:16:17.521Z,100544.81
2024-02-13T18:18:48.445Z,100539.47
2024-02-13T18:21:18.605Z,100535.97
2024-02-13T18:23:55.520Z,100536.84
2024-02-13T18:26:26.009Z,100539.47
2024-02-13T18:28:55.895Z,100539.59
2024-02-13T18:31:26.365Z,100537.94
2024-02-13T18:33:56.364Z,100541.66
2024-02-13T18:36:28.907Z,100539.13
2024-02-13T18:39:01.343Z,100543.63
2024-02-13T18:41:31.239Z,100549.91
2024-02-13T18:44:01.047Z,100542.03
2024-02-13T18:46:32.322Z,100538.63
2024-02-13T18:49:02.554Z,100539.56
2024-02-13T18:51:32.443Z,100537.88
2024-02-13T18:54:05.103Z,100534.44
2024-02-13T18:56:35.935Z,100532.75
2024-02-13T18:59:06.452Z,100531.94
2024-02-13T19:01:36.269Z,100531.06
2024-02-13T19:04:06.189Z,100533.72
2024-02-13T19:06:36.007Z,100531.97
2024-02-13T19:09:09.433Z,100531.97
2024-02-13T19:11:39.572Z,100535.53
2024-02-13T19:14:12.352Z,100529.44
2024-02-13T19:16:45.995Z,100531.22
2024-02-13T19:19:19.523Z,100528.63
2024-02-13T19:21:49.454Z,100526.91
2024-02-13T19:24:23.233Z,100526.91
2024-02-13T19:26:53.980Z,100524.31
2024-02-13T19:29:23.828Z,100523.44
2024-02-13T19:31:53.766Z,100524.34
2024-02-13T19:34:28.116Z,100520.00
2024-02-13T19:36:58.366Z,100528.81
2024-02-13T19:39:34.662Z,100520.06
2024-02-13T19:42:05.468Z,100519.22
2024-02-13T19:44:35.379Z,100522.75
2024-02-13T19:47:05.137Z,100517.47
2024-02-13T19:49:34.908Z,100522.75
2024-02-13T19:52:04.810Z,100520.13
2024-02-13T19:54:37.361Z,100507.88
2024-02-13T19:57:07.910Z,100514.09
2024-02-13T19:59:39.067Z,100512.34
2024-02-13T20:02:09.296Z,100515.91
2024-02-13T20:04:39.097Z,100503.63
2024-02-13T20:07:09.002Z,100509.81
2024-02-13T20:09:42.347Z,100502.81
2024-02-13T20:12:12.277Z,100499.34
2024-02-13T20:14:42.187Z,100513.47
2024-02-13T20:17:12.074Z,100508.19
2024-02-13T20:19:43.840Z,100506.44
2024-02-13T20:22:14.731Z,100497.72
2024-02-13T20:24:47.310Z,100498.66
2024-02-13T20:27:17.449Z,100499.53
2024-02-13T20:29:47.622Z,100491.75
2024-02-13T20:32:17.681Z,100493.50
2024-02-13T20:34:47.839Z,100497.91
2024-02-13T20:37:20.629Z,100494.44
2024-02-13T20:39:53.557Z,100494.50
2024-02-13T20:42:25.085Z,100495.38
2024-02-13T20:45:01.331Z,100491.94
2024-02-13T20:47:37.495Z,100496.38
2024-02-13T20:50:08.311Z,100494.72
2024-02-13T20:52:38.470Z,100500.00
2024-02-13T20:55:14.929Z,100495.69
2024-02-13T20:57:45.072Z,100498.34
2024-02-13T21:00:16.676Z,100496.63
2024-02-13T21:02:49.310Z,100489.63
2024-02-13T21:05:23.011Z,100494.00
2024-02-13T21:07:52.866Z,100481.66
2024-02-13T21:10:25.390Z,100493.06
2024-02-13T21:12:56.445Z,100489.53
2024-02-13T21:15:26.360Z,100479.03
2024-02-13T21:17:56.267Z,100486.94
2024-02-13T21:20:31.254Z,100487.84
2024-02-13T21:23:13.712Z,100472.91
2024-02-13T21:25:46.422Z,100473.72
2024-02-13T21:28:16.233Z,100471.03
2024-02-13T21:30:46.453Z,100467.44
2024-02-13T21:33:16.668Z,100471.88
2024-02-13T21:35:46.672Z,100471.81
2024-02-13T21:38:16.563Z,100470.03
2024-02-13T21:40:49.246Z,100470.03
2024-02-13T21:43:19.207Z,100466.44
2024-02-13T21:45:49.335Z,100465.56
2024-02-13T21:48:19.245Z,100466.38
2024-02-13T21:50:49.240Z,100471.66
2024-02-13T21:53:19.067Z,100462.81
2024-02-13T21:55:51.580Z,100467.19
2024-02-13T21:58:21.564Z,100462.81
2024-02-13T22:00:52.100Z,100471.66
2024-02-13T22:03:21.973Z,100465.41
2024-02-13T22:05:51.845Z,100461.00
2024-02-13T22:08:21.720Z,100458.31
2024-02-13T22:10:54.756Z,100454.78
2024-02-13T22:13:24.608Z,100462.66
2024-02-13T22:15:56.040Z,100446.84
2024-02-13T22:18:26.747Z,100457.38
2024-02-13T22:20:56.906Z,100453.88
2024-02-13T22:23:26.894Z,100453.84
2024-02-13T22:26:04.990Z,100460.81
2024-02-13T22:28:34.768Z,100452.00
2024-02-13T22:31:04.716Z,100453.78
2024-02-13T22:33:34.693Z,100461.66
2024-02-13T22:36:04.926Z,100453.75
2024-02-13T22:38:34.767Z,100452.84
2024-02-13T22:41:11.177Z,100460.66
2024-02-13T22:43:41.044Z,100453.59
2024-02-13T22:46:10.834Z,100437.72
2024-02-13T22:48:41.616Z,100450.84
2024-02-13T22:51:12.009Z,100433.28
2024-02-13T22:53:41.936Z,100444.63
2024-02-13T22:56:14.568Z,100454.22
2024-02-13T22:58:44.392Z,100439.22
2024-02-13T23:01:15.572Z,100440.09
2024-02-13T23:03:45.385Z,100441.81
2024-02-13T23:06:15.375Z,100437.34
2024-02-13T23:08:45.516Z,100433.81
2024-02-13T23:11:18.044Z,100438.97
2024-02-13T23:13:51.046Z,100438.94
2024-02-13T23:16:24.666Z,100442.38
2024-02-13T23:18:55.202Z,100437.06
2024-02-13T23:21:25.548Z,100429.97
2024-02-13T23:23:55.371Z,100426.41
2024-02-13T23:26:27.846Z,100430.78
2024-02-13T23:28:57.790Z,100428.09
2024-02-13T23:31:27.994Z,100426.34
2024-02-13T23:33:58.015Z,100412.22
2024-02-13T23:36:27.936Z,100415.69
2024-02-13T23:38:57.804Z,100416.47
2024-02-13T23:41:30.229Z,100405.91
2024-02-13T23:44:00.732Z,100402.38
2024-02-13T23:46:30.652Z,100400.63
2024-02-13T23:49:00.773Z,100407.59
2024-02-13T23:51:30.726Z,100395.28
2024-02-13T23:54:00.836Z,100391.75
2024-02-13T23:56:33.386Z,100402.25
2024-02-13T23:59:04.274Z,100403.03
